Time;durP1;ratioP1;P1;durP2;ratioP2;P2;SDS_P1;SDS_P2;PMS_P1;PMS_P2;Temp;Humidity;BMP_temperature;BMP_pressure;BME280_temperature;BME280_humidity;BME280_pressure;Samples;Min_cycle;Max_cycle;Signal;HPM_P1;HPM_P2
2023/11/23 00:00:10;;;;;;;13.63;8.15;;;;;;;10.94;100.00;100242.38;5137784;27;20276;-64
2023/11/23 00:02:36;;;;;;;14.50;7.78;;;;;;;10.87;100.00;100237.69;5138391;27;20046;-63
2023/11/23 00:05:01;;;;;;;12.73;8.10;;;;;;;10.82;100.00;100239.94;5137996;27;20027;-64
2023/11/23 00:07:27;;;;;;;13.60;8.48;;;;;;;10.80;100.00;100239.28;5138295;27;20035;-63
2023/11/23 00:09:52;;;;;;;16.45;9.15;;;;;;;10.93;100.00;100246.00;5138769;27;20039;-64
2023/11/23 00:12:18;;;;;;;15.00;8.75;;;;;;;10.94;100.00;100253.81;5137950;27;20039;-64
2023/11/23 00:14:44;;;;;;;15.18;8.02;;;;;;;10.90;100.00;100251.59;5138024;27;20101;-64
2023/11/23 00:17:09;;;;;;;12.93;8.48;;;;;;;10.86;100.00;100259.03;5137694;27;20031;-64
2023/11/23 00:19:35;;;;;;;14.32;7.60;;;;;;;10.91;100.00;100255.91;5138365;27;20321;-66
2023/11/23 00:22:01;;;;;;;12.43;7.88;;;;;;;10.84;100.00;100259.19;5138160;27;20329;-64
2023/11/23 00:24:26;;;;;;;13.38;7.82;;;;;;;10.79;100.00;100260.63;5138442;27;20042;-65
2023/11/23 00:26:53;;;;;;;14.38;8.60;;;;;;;10.76;100.00;100260.91;5138035;27;20108;-64
2023/11/23 00:29:20;;;;;;;15.77;8.63;;;;;;;10.58;100.00;100268.84;5135992;27;20050;-65
2023/11/23 00:31:46;;;;;;;15.63;8.75;;;;;;;10.57;100.00;100269.81;5138183;27;20327;-65
2023/11/23 00:34:11;;;;;;;18.75;10.10;;;;;;;10.80;100.00;100283.47;5137222;27;20047;-66
2023/11/23 00:36:39;;;;;;;20.27;10.35;;;;;;;10.80;100.00;100292.25;5137319;27;20061;-66
2023/11/23 00:39:06;;;;;;;17.58;10.80;;;;;;;10.88;100.00;100287.03;5136755;27;20034;-66
2023/11/23 00:41:32;;;;;;;18.05;9.40;;;;;;;10.93;100.00;100285.75;5137186;27;20046;-66
2023/11/23 00:43:57;;;;;;;18.25;10.13;;;;;;;10.75;100.00;100283.91;5137376;27;20041;-64
2023/11/23 00:46:23;;;;;;;17.50;10.30;;;;;;;10.78;100.00;100285.44;5137473;27;20035;-63
2023/11/23 00:48:48;;;;;;;21.25;10.35;;;;;;;10.78;100.00;100296.88;5137823;27;20039;-63
2023/11/23 00:51:15;;;;;;;16.33;8.93;;;;;;;10.84;100.00;100296.25;5137678;27;20084;-64
2023/11/23 00:53:41;;;;;;;18.98;9.23;;;;;;;10.71;100.00;100301.09;5136908;27;20039;-66
2023/11/23 00:56:07;;;;;;;18.23;10.27;;;;;;;10.72;100.00;100309.88;5137455;27;20061;-65
2023/11/23 00:58:32;;;;;;;16.05;9.13;;;;;;;10.73;100.00;100315.03;5137129;27;20213;-64
2023/11/23 01:00:57;;;;;;;18.98;10.90;;;;;;;10.82;100.00;100316.78;5137142;27;20057;-65
2023/11/23 01:03:24;;;;;;;17.10;9.30;;;;;;;10.84;100.00;100319.28;5136958;27;20035;-64
2023/11/23 01:05:50;;;;;;;15.15;8.82;;;;;;;10.84;100.00;100316.63;5136513;27;20232;-66
2023/11/23 01:08:16;;;;;;;16.67;8.07;;;;;;;10.86;100.00;100314.66;5136887;27;20106;-64
2023/11/23 01:10:42;;;;;;;14.40;8.90;;;;;;;10.77;100.00;100316.38;5136710;27;20121;-64
2023/11/23 01:13:07;;;;;;;14.93;8.75;;;;;;;10.75;100.00;100312.22;5136971;27;20050;-64
2023/11/23 01:15:32;;;;;;;14.02;7.88;;;;;;;10.69;100.00;100311.00;5136997;27;20568;-64
2023/11/23 01:17:58;;;;;;;13.48;8.38;;;;;;;10.84;100.00;100320.09;5137124;27;20051;-64
2023/11/23 01:20:23;;;;;;;13.70;8.43;;;;;;;10.67;100.00;100312.13;5137343;27;20033;-65
2023/11/23 01:22:49;;;;;;;13.32;8.13;;;;;;;10.49;100.00;100317.41;5136058;27;20202;-65
2023/11/23 01:25:14;;;;;;;16.27;8.10;;;;;;;10.54;100.00;100309.84;5137397;27;20317;-66
2023/11/23 01:27:40;;;;;;;14.85;7.88;;;;;;;10.44;100.00;100317.00;5136227;27;20035;-66
2023/11/23 01:30:06;;;;;;;14.80;8.43;;;;;;;10.39;100.00;100324.53;5136448;27;20041;-63
2023/11/23 01:32:32;;;;;;;15.07;9.05;;;;;;;10.39;100.00;100335.94;5137022;27;20495;-65
2023/11/23 01:34:57;;;;;;;16.13;8.70;;;;;;;10.34;100.00;100324.13;5137409;27;20069;-65
2023/11/23 01:37:23;;;;;;;16.50;7.97;;;;;;;10.17;100.00;100328.34;5138961;27;20420;-66
2023/11/23 01:39:48;;;;;;;16.50;8.35;;;;;;;10.23;100.00;100322.50;5136657;27;20332;-66
2023/11/23 01:42:14;;;;;;;15.75;8.23;;;;;;;10.18;100.00;100317.63;5136932;27;20111;-65
2023/11/23 01:44:40;;;;;;;16.30;8.65;;;;;;;10.09;100.00;100322.94;5137964;27;20035;-66
2023/11/23 01:47:10;;;;;;;16.70;9.65;;;;;;;10.15;100.00;100317.06;5136752;27;20268;-66
2023/11/23 01:49:39;;;;;;;20.88;9.68;;;;;;;10.10;100.00;100321.97;5136267;27;20117;-65
2023/11/23 01:52:04;;;;;;;17.75;9.25;;;;;;;10.12;100.00;100328.78;5135386;27;20039;-65
2023/11/23 01:54:30;;;;;;;18.85;10.50;;;;;;;10.14;100.00;100332.13;5136365;27;20026;-66
2023/11/23 01:56:56;;;;;;;18.83;9.63;;;;;;;10.08;100.00;100332.69;5136094;27;20210;-66
2023/11/23 01:59:23;;;;;;;14.80;8.38;;;;;;;10.03;100.00;100334.09;5135636;27;20027;-63
2023/11/23 02:01:49;;;;;;;21.50;10.02;;;;;;;10.07;100.00;100327.53;5136188;27;20086;-63
2023/11/23 02:04:16;;;;;;;18.05;9.63;;;;;;;10.03;100.00;100336.75;5135799;27;20030;-65
2023/11/23 02:06:41;;;;;;;20.38;12.40;;;;;;;10.07;100.00;100331.03;5135929;27;20035;-63
2023/11/23 02:09:08;;;;;;;20.55;10.90;;;;;;;10.05;100.00;100338.28;5135810;27;20092;-65
2023/11/23 02:11:35;;;;;;;23.83;11.35;;;;;;;10.06;100.00;100344.41;5136062;27;20058;-65
2023/11/23 02:14:01;;;;;;;21.83;10.13;;;;;;;10.12;100.00;100343.81;5134704;27;20076;-66
2023/11/23 02:16:27;;;;;;;20.15;10.52;;;;;;;10.15;100.00;100348.81;5134772;27;20043;-63
2023/11/23 02:18:53;;;;;;;19.75;10.25;;;;;;;10.18;100.00;100349.38;5135963;27;20031;-63
2023/11/23 02:21:18;;;;;;;22.90;10.45;;;;;;;10.13;100.00;100342.84;5135925;27;20264;-64
2023/11/23 02:23:43;;;;;;;22.00;11.18;;;;;;;10.16;100.00;100347.84;5135353;27;20046;-63
2023/11/23 02:26:09;;;;;;;20.48;10.85;;;;;;;10.20;100.00;100350.09;5135593;27;20038;-64
2023/11/23 02:28:35;;;;;;;22.77;10.73;;;;;;;10.18;100.00;100352.03;5135864;27;20031;-64
2023/11/23 02:31:01;;;;;;;22.45;10.63;;;;;;;10.29;100.00;100358.97;5135224;27;20073;-65
2023/11/23 02:33:27;;;;;;;19.83;10.32;;;;;;;10.30;100.00;100365.94;5134843;27;20068;-65
2023/11/23 02:35:52;;;;;;;18.70;10.50;;;;;;;10.31;100.00;100370.25;5135297;27;20031;-64
2023/11/23 02:38:18;;;;;;;21.17;9.73;;;;;;;10.26;100.00;100374.31;5134655;27;20580;-64
2023/11/23 02:40:43;;;;;;;20.80;10.50;;;;;;;10.33;100.00;100368.28;5134182;27;20316;-64
2023/11/23 02:43:09;;;;;;;15.00;8.07;;;;;;;10.18;100.00;100369.72;5135274;27;20403;-65
2023/11/23 02:45:35;;;;;;;14.70;8.27;;;;;;;10.14;100.00;100368.31;5135159;27;20072;-66
2023/11/23 02:48:00;;;;;;;17.85;8.40;;;;;;;10.12;100.00;100371.13;5134566;27;20081;-65
2023/11/23 02:50:26;;;;;;;14.07;8.60;;;;;;;10.13;100.00;100379.88;5135410;27;20245;-66
2023/11/23 02:52:55;;;;;;;14.60;8.85;;;;;;;10.20;100.00;100376.56;5134750;27;20063;-63
2023/11/23 02:55:20;;;;;;;14.55;8.45;;;;;;;10.14;100.00;100392.97;5135401;27;20262;-65
2023/11/23 02:57:46;;;;;;;14.23;8.63;;;;;;;10.17;100.00;100390.03;5134573;27;20084;-64
2023/11/23 03:00:14;;;;;;;11.75;6.72;;;;;;;10.09;100.00;100392.56;5134679;27;20068;-64
2023/11/23 03:02:40;;;;;;;9.63;6.13;;;;;;;10.08;100.00;100392.72;5135125;27;20422;-65
2023/11/23 03:05:06;;;;;;;13.18;7.63;;;;;;;10.09;100.00;100404.97;5135181;27;20031;-65
2023/11/23 03:07:31;;;;;;;11.88;6.60;;;;;;;10.01;100.00;100407.50;5135528;27;20102;-66
2023/11/23 03:09:57;;;;;;;13.63;6.93;;;;;;;9.99;100.00;100412.09;5135181;27;20050;-66
2023/11/23 03:12:23;;;;;;;14.45;8.25;;;;;;;9.92;100.00;100404.72;5135225;27;20092;-65
2023/11/23 03:14:48;;;;;;;15.10;7.85;;;;;;;9.93;100.00;100393.16;5135211;27;20046;-65
2023/11/23 03:17:14;;;;;;;16.60;8.77;;;;;;;10.01;100.00;100400.41;5134423;27;20237;-65
2023/11/23 03:19:39;;;;;;;13.63;7.40;;;;;;;9.93;100.00;100403.75;5134172;27;20065;-64
2023/11/23 03:22:05;;;;;;;15.57;7.28;;;;;;;9.96;100.00;100409.72;5134423;27;20074;-65
2023/11/23 03:24:30;;;;;;;14.27;7.47;;;;;;;9.94;100.00;100409.88;5133967;27;20070;-66
2023/11/23 03:26:56;;;;;;;15.57;7.65;;;;;;;9.88;100.00;100419.22;5134384;27;20038;-63
2023/11/23 03:29:22;;;;;;;14.50;7.10;;;;;;;9.91;100.00;100423.38;5134188;27;20027;-66
2023/11/23 03:31:48;;;;;;;13.27;6.63;;;;;;;9.93;100.00;100430.22;5134176;27;20042;-66
2023/11/23 03:34:13;;;;;;;14.68;7.28;;;;;;;9.91;100.00;100428.69;5134212;27;20350;-66
2023/11/23 03:36:39;;;;;;;16.27;7.80;;;;;;;9.78;100.00;100434.25;5134321;27;20046;-63
2023/11/23 03:39:06;;;;;;;15.40;7.90;;;;;;;9.84;100.00;100441.63;5133755;27;20027;-63
2023/11/23 03:41:32;;;;;;;11.70;6.57;;;;;;;9.83;100.00;100439.97;5134296;27;20833;-65
2023/11/23 03:43:58;;;;;;;15.60;8.00;;;;;;;9.85;100.00;100438.00;5134628;27;20081;-63
2023/11/23 03:46:23;;;;;;;14.43;8.52;;;;;;;9.88;100.00;100444.81;5133888;27;20030;-64
2023/11/23 03:48:49;;;;;;;14.40;8.00;;;;;;;9.84;100.00;100444.28;5134295;27;20075;-64
2023/11/23 03:51:14;;;;;;;13.57;8.20;;;;;;;9.84;100.00;100440.78;5134112;27;20083;-65
2023/11/23 03:53:40;;;;;;;18.75;9.90;;;;;;;9.86;100.00;100438.84;5133337;27;20047;-65
2023/11/23 03:56:06;;;;;;;22.20;11.85;;;;;;;9.87;100.00;100449.28;5133747;27;20126;-66
2023/11/23 03:58:32;;;;;;;19.00;10.27;;;;;;;9.92;100.00;100449.69;5133786;27;20035;-64
2023/11/23 04:00:59;;;;;;;18.35;10.50;;;;;;;9.94;100.00;100452.19;5133695;27;20309;-66
2023/11/23 04:03:25;;;;;;;18.92;10.35;;;;;;;9.84;100.00;100452.22;5129337;27;20055;-64
2023/11/23 04:05:50;;;;;;;18.15;10.10;;;;;;;10.01;100.00;100453.31;5121158;28;20047;-63
2023/11/23 04:08:16;;;;;;;18.08;9.43;;;;;;;9.94;100.00;100457.50;5120555;28;20038;-64
2023/11/23 04:10:42;;;;;;;16.13;9.63;;;;;;;9.87;100.00;100462.50;5121473;28;20359;-63
2023/11/23 04:13:07;;;;;;;14.73;9.77;;;;;;;9.88;100.00;100466.81;5129364;28;20069;-63
2023/11/23 04:15:33;;;;;;;14.77;9.25;;;;;;;9.99;100.00;100470.31;5123932;28;20023;-66
2023/11/23 04:17:58;;;;;;;16.20;9.93;;;;;;;9.95;100.00;100476.84;5127779;27;20055;-63
2023/11/23 04:20:23;;;;;;;13.70;8.55;;;;;;;9.90;100.00;100475.47;5121361;28;20237;-64
2023/11/23 04:22:49;;;;;;;14.70;8.15;;;;;;;9.94;100.00;100481.31;5121632;28;20039;-63
2023/11/23 04:25:14;;;;;;;12.32;7.28;;;;;;;9.91;100.00;100473.66;5130065;28;20278;-63
2023/11/23 04:27:41;;;;;;;16.52;8.25;;;;;;;9.88;100.00;100482.69;5121136;28;20031;-63
2023/11/23 04:30:07;;;;;;;16.05;8.60;;;;;;;9.88;100.00;100484.50;5121234;27;20019;-66
2023/11/23 04:32:33;;;;;;;11.65;7.20;;;;;;;9.92;100.00;100478.78;5121629;28;20044;-63
2023/11/23 04:34:58;;;;;;;14.80;8.13;;;;;;;9.85;100.00;100485.63;5121058;28;20251;-64
2023/11/23 04:37:24;;;;;;;13.55;7.70;;;;;;;9.79;100.00;100485.34;5127921;28;20051;-66
2023/11/23 04:39:51;;;;;;;13.02;7.60;;;;;;;9.78;100.00;100487.16;5120889;28;20341;-63
2023/11/23 04:42:16;;;;;;;12.25;7.85;;;;;;;9.82;100.00;100480.63;5124811;27;20031;-66
2023/11/23 04:44:42;;;;;;;14.45;7.85;;;;;;;9.67;100.00;100479.34;5125919;27;20061;-66
2023/11/23 04:47:08;;;;;;;13.07;6.32;;;;;;;9.62;100.00;100486.03;5125154;27;20051;-66
2023/11/23 04:49:33;;;;;;;13.75;7.78;;;;;;;9.77;100.00;100495.22;5125433;27;20039;-63
2023/11/23 04:51:59;;;;;;;10.57;6.65;;;;;;;9.62;100.00;100497.44;5124243;27;20044;-64
2023/11/23 04:54:24;;;;;;;10.57;6.88;;;;;;;9.72;100.00;100500.94;5124241;27;20039;-63
2023/11/23 04:56:51;;;;;;;9.45;6.38;;;;;;;9.71;100.00;100504.53;5123933;27;20370;-66
2023/11/23 04:59:17;;;;;;;11.57;6.63;;;;;;;9.71;100.00;100499.25;5124838;27;20023;-63
2023/11/23 05:01:42;;;;;;;12.65;6.28;;;;;;;9.63;100.00;100512.34;5128007;27;20079;-64
2023/11/23 05:04:08;;;;;;;11.60;7.13;;;;;;;9.68;100.00;100509.28;5130993;27;20023;-64
2023/11/23 05:06:35;;;;;;;13.07;7.85;;;;;;;9.57;100.00;100508.44;5124638;27;20031;-63
2023/11/23 05:09:01;;;;;;;13.07;7.43;;;;;;;9.61;100.00;100509.00;5124270;27;20325;-65
2023/11/23 05:11:28;;;;;;;14.07;7.78;;;;;;;9.52;100.00;100508.00;5128825;27;20041;-66
2023/11/23 05:13:53;;;;;;;16.63;8.20;;;;;;;9.64;100.00;100507.88;5132308;27;20030;-65
2023/11/23 05:16:19;;;;;;;16.90;7.38;;;;;;;9.48;100.00;100508.41;5125816;27;20047;-63
2023/11/23 05:18:44;;;;;;;12.35;6.65;;;;;;;9.53;100.00;100514.97;5132748;27;20023;-64
2023/11/23 05:21:10;;;;;;;15.00;7.72;;;;;;;9.56;100.00;100519.13;5139538;27;20039;-63
2023/11/23 05:23:35;;;;;;;13.35;7.47;;;;;;;9.59;100.00;100519.72;5140664;27;20632;-63
2023/11/23 05:26:03;;;;;;;13.18;6.75;;;;;;;9.46;100.00;100527.06;5140540;27;20214;-66
2023/11/23 05:28:28;;;;;;;12.07;5.93;;;;;;;9.36;100.00;100523.53;5140694;27;20035;-65
2023/11/23 05:30:53;;;;;;;11.43;6.57;;;;;;;9.32;100.00;100526.56;5142090;27;20038;-63
2023/11/23 05:33:19;;;;;;;8.93;5.57;;;;;;;9.11;100.00;100529.28;5141103;27;20038;-65
2023/11/23 05:35:44;;;;;;;11.88;7.63;;;;;;;9.08;100.00;100530.38;5140770;27;20027;-64
2023/11/23 05:38:10;;;;;;;13.68;7.65;;;;;;;9.10;100.00;100533.72;5140237;27;20030;-66
2023/11/23 05:40:35;;;;;;;13.40;6.72;;;;;;;9.11;100.00;100539.84;5140482;27;20023;-64
2023/11/23 05:43:01;;;;;;;13.32;6.85;;;;;;;9.12;100.00;100529.16;5140012;27;20252;-66
2023/11/23 05:45:27;;;;;;;14.10;7.63;;;;;;;9.17;100.00;100541.97;5139867;27;20027;-67
2023/11/23 05:47:53;;;;;;;13.35;7.25;;;;;;;9.11;100.00;100550.41;5140638;27;20038;-65
2023/11/23 05:50:18;;;;;;;14.13;7.25;;;;;;;9.06;100.00;100539.41;5129827;27;20075;-65
2023/11/23 05:52:44;;;;;;;14.18;8.48;;;;;;;9.17;100.00;100545.44;5126648;27;20051;-63
2023/11/23 05:55:09;;;;;;;12.90;8.02;;;;;;;9.08;100.00;100543.59;5124400;27;20039;-65
2023/11/23 05:57:35;;;;;;;16.25;8.60;;;;;;;9.04;100.00;100547.47;5129206;27;20079;-65
2023/11/23 06:00:02;;;;;;;15.10;8.98;;;;;;;9.21;100.00;100552.13;5123400;27;20036;-63
2023/11/23 06:02:27;;;;;;;17.75;8.13;;;;;;;9.24;100.00;100556.31;5123038;27;20065;-66
2023/11/23 06:04:53;;;;;;;16.30;8.77;;;;;;;9.23;100.00;100566.03;5123719;27;20044;-64
2023/11/23 06:07:18;;;;;;;17.13;8.95;;;;;;;9.30;100.00;100571.63;5124268;27;20040;-66
2023/11/23 06:09:44;;;;;;;15.95;8.57;;;;;;;9.20;100.00;100573.41;5123867;27;20110;-63
2023/11/23 06:12:09;;;;;;;17.42;8.75;;;;;;;9.17;100.00;100571.03;5123703;27;20039;-64
2023/11/23 06:14:39;;;;;;;17.65;8.98;;;;;;;9.22;100.00;100569.66;5123493;27;20107;-64
2023/11/23 06:17:09;;;;;;;13.10;7.70;;;;;;;9.17;100.00;100561.28;5131169;27;20043;-63
2023/11/23 06:19:35;;;;;;;14.65;7.40;;;;;;;9.26;100.00;100568.41;5121931;27;20411;-64
2023/11/23 06:22:01;;;;;;;16.23;8.10;;;;;;;9.22;100.00;100567.00;5122661;27;20044;-63
2023/11/23 06:24:26;;;;;;;11.88;6.82;;;;;;;9.07;100.00;100557.78;5122734;27;20246;-65
2023/11/23 06:26:52;;;;;;;12.68;7.43;;;;;;;9.17;100.00;100563.09;5122372;27;20364;-66
2023/11/23 06:29:18;;;;;;;14.63;7.80;;;;;;;9.17;100.00;100571.03;5121642;27;20035;-64
2023/11/23 06:31:44;;;;;;;17.73;9.02;;;;;;;9.24;100.00;100573.00;5121961;27;20043;-64
2023/11/23 06:34:09;;;;;;;16.95;9.38;;;;;;;9.31;100.00;100575.13;5122897;27;20066;-65
2023/11/23 06:36:35;;;;;;;13.77;7.60;;;;;;;9.32;100.00;100580.25;5128315;27;20043;-64
2023/11/23 06:39:00;;;;;;;16.80;8.20;;;;;;;9.33;100.00;100579.28;5124789;27;20345;-63
2023/11/23 06:41:25;;;;;;;15.88;7.82;;;;;;;9.41;100.00;100587.41;5123253;27;20035;-64
2023/11/23 06:43:52;;;;;;;13.55;7.22;;;;;;;9.36;100.00;100578.19;5122969;27;20345;-66
2023/11/23 06:46:19;;;;;;;14.00;7.20;;;;;;;9.28;100.00;100584.16;5121903;27;20043;-66
2023/11/23 06:48:45;;;;;;;19.17;10.60;;;;;;;9.50;100.00;100583.97;5121725;27;20027;-64
2023/11/23 06:51:11;;;;;;;17.67;9.52;;;;;;;9.40;100.00;100582.28;5122330;27;20100;-63
2023/11/23 06:53:43;;;;;;;17.17;9.32;;;;;;;9.41;100.00;100578.66;5130323;27;20308;-65
2023/11/23 06:56:12;;;;;;;17.92;9.80;;;;;;;9.38;100.00;100574.47;5122025;27;20043;-65
2023/11/23 06:58:40;;;;;;;12.80;6.82;;;;;;;9.23;100.00;100573.13;5121520;27;20245;-63
2023/11/23 07:01:08;;;;;;;13.32;8.13;;;;;;;9.31;100.00;100578.59;5123606;27;20054;-67
2023/11/23 07:03:33;;;;;;;15.90;7.47;;;;;;;9.14;100.00;100579.22;5123989;27;20051;-64
2023/11/23 07:05:59;;;;;;;17.33;9.10;;;;;;;9.25;100.00;100576.47;5134760;27;20916;-64
2023/11/23 07:08:25;;;;;;;16.08;9.13;;;;;;;9.17;100.00;100582.44;5134318;27;20093;-66
2023/11/23 07:10:50;;;;;;;14.50;7.80;;;;;;;9.26;100.00;100594.00;5134618;27;20023;-64
2023/11/23 07:13:16;;;;;;;13.98;7.72;;;;;;;9.35;100.00;100585.28;5133086;27;20031;-66
2023/11/23 07:15:41;;;;;;;12.23;6.07;;;;;;;9.23;100.00;100596.91;5134874;27;20023;-65
2023/11/23 07:18:07;;;;;;;15.65;7.25;;;;;;;9.14;100.00;100589.78;5133992;27;20030;-66
2023/11/23 07:20:32;;;;;;;10.00;5.68;;;;;;;9.13;100.00;100598.69;5134472;27;20039;-66
2023/11/23 07:22:57;;;;;;;10.65;6.30;;;;;;;9.21;100.00;100594.41;5133873;27;20031;-63
2023/11/23 07:25:23;;;;;;;12.63;6.65;;;;;;;9.22;100.00;100596.09;5134037;27;20037;-65
2023/11/23 07:27:49;;;;;;;10.40;6.28;;;;;;;9.21;100.00;100597.06;5133719;27;20031;-63
2023/11/23 07:30:14;;;;;;;14.82;7.38;;;;;;;9.08;100.00;100598.25;5133589;27;20029;-66
2023/11/23 07:32:40;;;;;;;12.50;6.70;;;;;;;9.11;100.00;100605.91;5132755;27;20038;-65
2023/11/23 07:35:06;;;;;;;13.07;7.55;;;;;;;9.22;100.00;100603.19;5132926;27;20232;-63
2023/11/23 07:37:33;;;;;;;13.85;7.72;;;;;;;9.10;100.00;100598.94;5133428;27;20038;-65
2023/11/23 07:39:59;;;;;;;16.80;9.27;;;;;;;9.21;100.00;100604.13;5133391;27;20184;-65
2023/11/23 07:42:28;;;;;;;17.38;8.68;;;;;;;9.27;100.00;100604.44;5131720;27;20152;-64
2023/11/23 07:44:54;;;;;;;14.82;7.70;;;;;;;9.18;100.00;100607.06;5133490;27;20035;-65
2023/11/23 07:47:19;;;;;;;18.17;9.70;;;;;;;9.17;100.00;100606.22;5133730;27;20367;-66
2023/11/23 07:49:45;;;;;;;18.80;9.27;;;;;;;9.22;100.00;100605.81;5134306;27;20212;-64
2023/11/23 07:52:12;;;;;;;19.38;9.73;;;;;;;9.27;100.00;100608.91;5133287;27;20051;-65
2023/11/23 07:54:37;;;;;;;16.85;9.20;;;;;;;9.24;100.00;100612.63;5133283;27;20106;-64
2023/11/23 07:57:03;;;;;;;15.38;8.40;;;;;;;9.17;100.00;100605.38;5133942;27;20087;-63
2023/11/23 07:59:29;;;;;;;15.82;8.35;;;;;;;9.35;100.00;100601.16;5134110;28;20031;-65
2023/11/23 08:01:55;;;;;;;12.68;8.43;;;;;;;9.23;100.00;100608.31;5134153;27;20050;-64
2023/11/23 08:04:21;;;;;;;14.38;8.13;;;;;;;9.24;100.00;100603.88;5132964;28;20289;-65
2023/11/23 08:06:46;;;;;;;15.00;7.53;;;;;;;9.20;100.00;100591.91;5133102;27;20068;-64
2023/11/23 08:09:15;;;;;;;10.40;6.82;;;;;;;9.43;100.00;100596.06;5133506;27;20050;-64
2023/11/23 08:11:41;;;;;;;8.43;6.05;;;;;;;9.45;100.00;100603.84;5133810;28;20212;-63
2023/11/23 08:14:07;;;;;;;11.77;6.90;;;;;;;9.35;100.00;100603.78;5131874;27;20027;-63
2023/11/23 08:16:32;;;;;;;8.52;6.03;;;;;;;9.29;100.00;100605.16;5135822;27;20041;-65
2023/11/23 08:18:58;;;;;;;8.27;5.32;;;;;;;9.27;100.00;100601.81;5137603;27;20270;-63
2023/11/23 08:21:23;;;;;;;9.93;5.80;;;;;;;9.35;100.00;100600.31;5136677;27;20349;-65
2023/11/23 08:23:49;;;;;;;6.78;4.78;;;;;;;9.35;100.00;100619.66;5137724;27;20053;-63
2023/11/23 08:26:14;;;;;;;8.15;4.72;;;;;;;9.34;100.00;100617.97;5136957;27;20240;-63
2023/11/23 08:28:40;;;;;;;6.70;4.18;;;;;;;9.39;100.00;100621.09;5137071;27;20023;-65
2023/11/23 08:31:06;;;;;;;7.03;4.07;;;;;;;9.27;100.00;100627.41;5135290;27;20102;-63
2023/11/23 08:33:32;;;;;;;5.15;3.42;;;;;;;9.22;100.00;100625.16;5135117;27;20031;-63
2023/11/23 08:35:57;;;;;;;6.55;4.18;;;;;;;9.36;100.00;100615.19;5137853;27;20039;-63
2023/11/23 08:38:23;;;;;;;6.65;4.30;;;;;;;9.36;100.00;100621.31;5136520;27;20023;-63
2023/11/23 08:40:49;;;;;;;5.78;4.20;;;;;;;9.26;100.00;100620.44;5136471;27;20488;-64
2023/11/23 08:43:14;;;;;;;7.82;4.30;;;;;;;9.29;100.00;100621.00;5135250;27;20141;-64
2023/11/23 08:45:40;;;;;;;6.88;4.40;;;;;;;9.23;100.00;100618.91;5136314;27;20599;-65
2023/11/23 08:48:05;;;;;;;8.45;4.88;;;;;;;9.35;100.00;100614.34;5135528;27;20037;-66
2023/11/23 08:50:31;;;;;;;7.32;5.18;;;;;;;9.21;100.00;100617.34;5137006;27;20340;-63
2023/11/23 08:52:59;;;;;;;7.45;4.35;;;;;;;9.06;100.00;100608.94;5135502;27;20116;-64
2023/11/23 08:55:24;;;;;;;6.72;4.18;;;;;;;9.09;100.00;100610.47;5135818;27;20038;-66
2023/11/23 08:57:53;;;;;;;7.47;4.68;;;;;;;9.07;100.00;100605.31;5136676;27;20396;-65
2023/11/23 09:00:23;;;;;;;6.60;4.82;;;;;;;9.23;100.00;100592.47;5136146;27;20027;-64
2023/11/23 09:02:53;;;;;;;7.93;4.82;;;;;;;9.22;100.00;100597.88;5136968;27;20066;-62
2023/11/23 09:05:19;;;;;;;6.45;4.68;;;;;;;9.17;100.00;100590.34;5136087;27;20309;-66
2023/11/23 09:07:44;;;;;;;8.35;4.55;;;;;;;9.19;100.00;100598.16;5136512;27;20035;-63
2023/11/23 09:10:10;;;;;;;8.48;5.18;;;;;;;9.23;100.00;100597.75;5135532;27;20039;-66
2023/11/23 09:12:38;;;;;;;7.75;5.15;;;;;;;9.24;100.00;100595.94;5136278;27;20039;-64
2023/11/23 09:15:07;;;;;;;7.72;5.00;;;;;;;9.28;100.00;100578.84;5137894;27;20103;-63
2023/11/23 09:17:33;;;;;;;7.57;5.05;;;;;;;9.25;100.00;100574.69;5135121;27;20115;-63
2023/11/23 09:19:59;;;;;;;7.90;5.00;;;;;;;9.17;100.00;100563.94;5136063;27;20333;-65
2023/11/23 09:22:24;;;;;;;8.02;5.40;;;;;;;9.21;100.00;100567.97;5135316;27;20096;-65
2023/11/23 09:24:51;;;;;;;8.82;4.40;;;;;;;9.23;100.00;100566.03;5135886;27;20652;-63
2023/11/23 09:27:16;;;;;;;5.65;3.50;;;;;;;9.30;100.00;100563.72;5135520;27;20039;-65
2023/11/23 09:29:42;;;;;;;7.43;3.65;;;;;;;9.26;100.00;100572.88;5135347;27;20202;-65
2023/11/23 09:32:07;;;;;;;5.05;3.80;;;;;;;9.13;100.00;100566.97;5137589;27;20035;-65
2023/11/23 09:34:32;;;;;;;6.28;4.53;;;;;;;9.11;100.00;100587.41;5135922;27;20030;-63
2023/11/23 09:36:58;;;;;;;5.47;3.70;;;;;;;9.05;100.00;100575.56;5136663;27;20060;-65
2023/11/23 09:39:24;;;;;;;5.82;3.88;;;;;;;9.12;100.00;100573.22;5135357;27;20043;-63
2023/11/23 09:41:49;;;;;;;7.97;4.35;;;;;;;9.28;100.00;100565.66;5135425;27;20039;-65
2023/11/23 09:44:16;;;;;;;6.38;3.88;;;;;;;9.21;100.00;100561.88;5135569;27;20031;-63
2023/11/23 09:46:43;;;;;;;7.10;4.25;;;;;;;9.22;100.00;100561.72;5135721;27;20272;-63
2023/11/23 09:49:12;;;;;;;4.75;3.35;;;;;;;9.10;100.00;100568.06;5134606;27;20027;-63
2023/11/23 09:51:41;;;;;;;6.82;4.70;;;;;;;9.17;100.00;100574.50;5134529;27;20148;-64
2023/11/23 09:54:08;;;;;;;6.63;4.07;;;;;;;9.33;100.00;100570.53;5134625;27;20052;-65
2023/11/23 09:56:34;;;;;;;6.75;5.13;;;;;;;9.24;100.00;100562.44;5134619;27;20220;-65
2023/11/23 09:58:59;;;;;;;6.65;4.32;;;;;;;9.20;100.00;100561.03;5135682;27;20027;-65
2023/11/23 10:01:27;;;;;;;10.23;5.60;;;;;;;9.29;100.00;100560.22;5135523;27;20023;-65
2023/11/23 10:03:55;;;;;;;7.32;5.60;;;;;;;9.25;100.00;100550.91;5135027;27;20049;-63
2023/11/23 10:06:21;;;;;;;9.52;6.53;;;;;;;9.42;100.00;100533.59;5134762;27;20228;-63
2023/11/23 10:08:49;;;;;;;9.10;5.93;;;;;;;9.41;100.00;100536.38;5134921;27;20034;-63
2023/11/23 10:11:14;;;;;;;8.65;5.63;;;;;;;9.34;100.00;100540.47;5134529;27;20072;-65
2023/11/23 10:13:40;;;;;;;8.95;6.03;;;;;;;9.33;100.00;100539.66;5134745;27;20058;-65
2023/11/23 10:16:05;;;;;;;10.98;6.30;;;;;;;9.35;100.00;100552.72;5135098;27;20096;-65
2023/11/23 10:18:38;;;;;;;10.45;5.85;;;;;;;9.21;100.00;100540.72;5135505;27;20023;-65
2023/11/23 10:21:04;;;;;;;10.63;7.00;;;;;;;9.37;100.00;100540.25;5134919;27;20111;-63
2023/11/23 10:23:30;;;;;;;13.18;8.80;;;;;;;9.48;100.00;100534.84;5134856;27;20291;-63
2023/11/23 10:25:55;;;;;;;11.23;7.25;;;;;;;9.35;100.00;100531.59;5134836;27;20043;-66
2023/11/23 10:28:22;;;;;;;10.18;7.05;;;;;;;9.26;100.00;100526.13;5135384;27;20035;-65
2023/11/23 10:30:49;;;;;;;10.00;6.60;;;;;;;9.36;100.00;100518.22;5136064;27;20038;-65
2023/11/23 10:33:16;;;;;;;10.60;6.55;;;;;;;9.36;100.00;100510.31;5135325;27;20098;-65
2023/11/23 10:35:45;;;;;;;10.07;6.82;;;;;;;9.37;100.00;100516.47;5133590;27;20035;-64
2023/11/23 10:38:13;;;;;;;12.18;7.43;;;;;;;9.42;100.00;100524.81;5133240;27;20031;-65
2023/11/23 10:40:39;;;;;;;10.38;7.13;;;;;;;9.48;100.00;100525.13;5135208;27;20035;-65
2023/11/23 10:43:06;;;;;;;12.32;7.15;;;;;;;9.60;100.00;100531.13;5135280;27;20089;-65
2023/11/23 10:45:35;;;;;;;11.02;7.88;;;;;;;9.53;100.00;100522.91;5135425;27;20095;-66
2023/11/23 10:48:02;;;;;;;11.77;7.43;;;;;;;9.52;100.00;100517.75;5135104;27;20031;-65
2023/11/23 10:50:28;;;;;;;11.15;7.05;;;;;;;9.45;100.00;100508.69;5135231;27;20037;-65
2023/11/23 10:52:58;;;;;;;9.82;6.72;;;;;;;9.39;100.00;100507.41;5134789;27;20039;-64
2023/11/23 10:55:24;;;;;;;12.18;7.03;;;;;;;9.32;100.00;100495.69;5136005;27;20157;-63
2023/11/23 10:57:58;;;;;;;10.88;6.95;;;;;;;9.32;100.00;100500.97;5135509;27;20237;-63
2023/11/23 11:00:26;;;;;;;12.77;7.72;;;;;;;9.27;100.00;100497.91;5134905;27;20027;-65
2023/11/23 11:02:59;;;;;;;12.13;8.15;;;;;;;9.37;100.00;100496.16;5135435;27;20301;-65
2023/11/23 11:05:30;;;;;;;16.23;10.15;;;;;;;9.50;100.00;100496.72;5134948;27;20042;-65
2023/11/23 11:08:00;;;;;;;13.50;8.65;;;;;;;9.50;100.00;100482.69;5133040;27;20031;-66